Main page
METAR-TAF:

METAR-TAF

Airports :

RAF Topcliffe

Topcliffe, England

latitude: 54-12N, longitude: 001-23W, elevation: 28 m

Current weather observation

The report was made 34 minutes ago, at 20:50 UTC
Wind 2 kt from the West
Temperature 1°C
Humidity 86%
Pressure 1023 hPa
Visibility 10 km or more

METAR: EGXZ 112050Z AUTO 28002KT 9999 NCD 01/M01 Q1023

Time: 22:24 (21:24 UTC)


TAF: missing

Weather observations and forecasts of more than 4000 airports (METAR and TAF reports).

The available stations are represented by yellow and red dots on the map.

Hover mouse over dot to see the name of the station.

Then click to see weather observations and forecasts.

To change the map : click on the green buttons with a black cross to zoom in, on the green button with a dash to zoom out, or on the green arrows for adjacent maps.


METAR-TAF: